Pauline Russ — CQIE7 — position and weather

sailwx.info

Track history (hours):
 
Tides and Currents Weather Stations Pressure Air Temp Water Temp Dewpoint Dewpoint Depression Visibility Wind Speed Wind Dir Waves Ship Positions

Pauline Russ

Last reported at 2017-Nov-17 19:12 UTC. Time now 2017-Nov-18 04:53 UTC.
Position N 35°58' W 005°29'.

Length 155 m; draft 6.3 m.

Type: Cargo ship. MMSI: 255805939.

Date/timePositionNaut miles runAvg speedWind from/ knotsBaromVisibWave heightAir tempDewpointWater temp
2017-Nov-17 19:12N 35°58' W 005°29'317.3
2017-Nov-17 19:00N 36°00' W 005°27'2 0.4
2017-Nov-17 13:07N 36°02' W 005°24'319.8
2017-Nov-17 12:59N 35°59' W 005°25'5 0.8
2017-Nov-17 07:10N 35°56' W 005°30'918.0
2017-Nov-17 06:38N 36°04' W 005°22'617.1
2017-Nov-17 06:17N 36°09' W 005°25'6 0.6
2017-Nov-16 19:22N 36°03' W 005°24'720.4
2017-Nov-16 19:00N 35°57' W 005°28'2 0.4
2017-Nov-16 13:53N 35°58' W 005°29'8 1.2
2017-Nov-16 07:21N 36°05' W 005°23'720.1
2017-Nov-16 07:00N 35°58' W 005°26'4 0.4
2017-Nov-15 19:24N 35°56' W 005°31'6 0.9
2017-Nov-15 13:08N 35°59' W 005°25'320.1
2017-Nov-15 13:01N 35°58' W 005°27'2 0.4
2017-Nov-15 07:36N 35°57' W 005°30'218.4
2017-Nov-15 07:30N 35°58' W 005°29'916.2
2017-Nov-15 06:58N 36°06' W 005°24'3 5.4
2017-Nov-15 06:30N 36°08' W 005°26'7 0.6
2017-Nov-14 19:03N 36°01' W 005°24'121.0
2017-Nov-14 19:00N 36°00' W 005°24'4 0.7
2017-Nov-14 13:20N 35°58' W 005°29'716.3
2017-Nov-14 12:56N 36°04' W 005°24'4 0.4
2017-Nov-14 00:14N 36°08' W 005°26'0 0.0
2017-Nov-13 23:44N 36°08' W 005°26'12 0.4
2017-Nov-12 21:26N 35°56' W 005°30'613.5
2017-Nov-12 21:01N 36°00' W 005°25'917.0
2017-Nov-12 20:30N 36°09' W 005°25'1 2.2
2017-Nov-12 19:59N 36°08' W 005°26'0 0.0
2017-Nov-12 19:26N 36°08' W 005°26'0 0.0
2017-Nov-12 18:56N 36°08' W 005°26'0 0.0
2017-Nov-12 16:44N 36°08' W 005°26'0 0.0
2017-Nov-12 16:20N 36°08' W 005°26'0 0.0
2017-Nov-12 15:59N 36°08' W 005°26'0 0.0
2017-Nov-12 15:29N 36°08' W 005°26'0 0.0
2017-Nov-12 14:59N 36°08' W 005°26'0 0.0
2017-Nov-12 14:29N 36°08' W 005°26'1 2.8
2017-Nov-12 14:00N 36°09' W 005°25'611.6
2017-Nov-12 13:30N 36°03' W 005°24'8 1.3
2017-Nov-12 07:14N 35°57' W 005°30'418.0
2017-Nov-12 07:00N 36°00' W 005°27'915.7
2017-Nov-12 06:26N 36°09' W 005°25'1 0.1
2017-Nov-11 20:37N 36°08' W 005°26'1 5.2
2017-Nov-11 20:30N 36°08' W 005°26'2 3.1
2017-Nov-11 19:58N 36°09' W 005°24'1 1.5
2017-Nov-11 19:30N 36°08' W 005°24'816.4
2017-Nov-11 19:00N 35°60' W 005°25'6 1.0
2017-Nov-11 13:21N 35°57' W 005°31'616.8
2017-Nov-11 12:58N 36°01' W 005°25'7 0.4
2017-Nov-10 20:12N 36°08' W 005°26'1 6.1
2017-Nov-10 19:58N 36°09' W 005°25'714.3
2017-Nov-10 19:30N 36°03' W 005°23'816.1
2017-Nov-10 19:01N 35°56' W 005°29'2 0.3
2017-Nov-10 13:51N 35°57' W 005°31'717.6
2017-Nov-10 13:28N 36°02' W 005°25'1 0.1
2017-Nov-10 07:23N 36°02' W 005°24'7 0.6
2017-Nov-09 19:21N 35°57' W 005°30'2 0.1
2017-Nov-08 19:17N 35°56' W 005°29'  
Track history (hours):
 
Tides and Currents Weather Stations Pressure Air Temp Water Temp Dewpoint Dewpoint Depression Visibility Wind Speed Wind Dir Waves Ship Positions

Pauline Russ

Last reported at 2017-Nov-17 19:12 UTC. Time now 2017-Nov-18 04:53 UTC.
Position N 35°58' W 005°29'.

Length 155 m; draft 6.3 m.

Type: Cargo ship. MMSI: 255805939.

Date/timePositionNaut miles runAvg speedWind from/ knotsBaromVisibWave heightAir tempDewpointWater temp
2017-Nov-17 19:12N 35°58' W 005°29'317.3
2017-Nov-17 19:00N 36°00' W 005°27'2 0.4
2017-Nov-17 13:07N 36°02' W 005°24'319.8
2017-Nov-17 12:59N 35°59' W 005°25'5 0.8
2017-Nov-17 07:10N 35°56' W 005°30'918.0
2017-Nov-17 06:38N 36°04' W 005°22'617.1
2017-Nov-17 06:17N 36°09' W 005°25'6 0.6
2017-Nov-16 19:22N 36°03' W 005°24'720.4
2017-Nov-16 19:00N 35°57' W 005°28'2 0.4
2017-Nov-16 13:53N 35°58' W 005°29'8 1.2
2017-Nov-16 07:21N 36°05' W 005°23'720.1
2017-Nov-16 07:00N 35°58' W 005°26'4 0.4
2017-Nov-15 19:24N 35°56' W 005°31'6 0.9
2017-Nov-15 13:08N 35°59' W 005°25'320.1
2017-Nov-15 13:01N 35°58' W 005°27'2 0.4
2017-Nov-15 07:36N 35°57' W 005°30'218.4
2017-Nov-15 07:30N 35°58' W 005°29'916.2
2017-Nov-15 06:58N 36°06' W 005°24'3 5.4
2017-Nov-15 06:30N 36°08' W 005°26'7 0.6
2017-Nov-14 19:03N 36°01' W 005°24'121.0
2017-Nov-14 19:00N 36°00' W 005°24'4 0.7
2017-Nov-14 13:20N 35°58' W 005°29'716.3
2017-Nov-14 12:56N 36°04' W 005°24'4 0.4
2017-Nov-14 00:14N 36°08' W 005°26'0 0.0
2017-Nov-13 23:44N 36°08' W 005°26'12 0.4
2017-Nov-12 21:26N 35°56' W 005°30'613.5
2017-Nov-12 21:01N 36°00' W 005°25'917.0
2017-Nov-12 20:30N 36°09' W 005°25'1 2.2
2017-Nov-12 19:59N 36°08' W 005°26'0 0.0
2017-Nov-12 19:26N 36°08' W 005°26'0 0.0
2017-Nov-12 18:56N 36°08' W 005°26'0 0.0
2017-Nov-12 16:44N 36°08' W 005°26'0 0.0
2017-Nov-12 16:20N 36°08' W 005°26'0 0.0
2017-Nov-12 15:59N 36°08' W 005°26'0 0.0
2017-Nov-12 15:29N 36°08' W 005°26'0 0.0
2017-Nov-12 14:59N 36°08' W 005°26'0 0.0
2017-Nov-12 14:29N 36°08' W 005°26'1 2.8
2017-Nov-12 14:00N 36°09' W 005°25'611.6
2017-Nov-12 13:30N 36°03' W 005°24'8 1.3
2017-Nov-12 07:14N 35°57' W 005°30'418.0
2017-Nov-12 07:00N 36°00' W 005°27'915.7
2017-Nov-12 06:26N 36°09' W 005°25'1 0.1
2017-Nov-11 20:37N 36°08' W 005°26'1 5.2
2017-Nov-11 20:30N 36°08' W 005°26'2 3.1
2017-Nov-11 19:58N 36°09' W 005°24'1 1.5
2017-Nov-11 19:30N 36°08' W 005°24'816.4
2017-Nov-11 19:00N 35°60' W 005°25'6 1.0
2017-Nov-11 13:21N 35°57' W 005°31'616.8
2017-Nov-11 12:58N 36°01' W 005°25'7 0.4
2017-Nov-10 20:12N 36°08' W 005°26'1 6.1
2017-Nov-10 19:58N 36°09' W 005°25'714.3
2017-Nov-10 19:30N 36°03' W 005°23'816.1
2017-Nov-10 19:01N 35°56' W 005°29'2 0.3
2017-Nov-10 13:51N 35°57' W 005°31'717.6
2017-Nov-10 13:28N 36°02' W 005°25'1 0.1
2017-Nov-10 07:23N 36°02' W 005°24'7 0.6
2017-Nov-09 19:21N 35°57' W 005°30'2 0.1
2017-Nov-08 19:17N 35°56' W 005°29'  

Dump ship's entire track history